Terminal Aerodrome Forecast
Issued by NWS

Home | Current Version | Previous Version | Text Only | Print | Product List | Glossary On
Versions: 1 2 3 4 5 6 7 8 9 10 11 12 13 14 15 16 17 18 19 20 21 22 23 24 25 26 27 28 29 30 31 32 33 34 35 36
000
FTUS45 KGJT 280532
TAFMTJ
TAF
KMTJ 280532Z 2806/2906 32010KT P6SM VCSH FEW080 BKN110
      TEMPO 2806/2808 VRB10G20KT -TSRA BKN080CB
     FM280900 13006KT P6SM SCT090 SCT150
     FM281400 VRB03KT P6SM SCT180
     FM282100 32008KT P6SM VCTS SCT080CB BKN100
     FM290300 14006KT P6SM VCSH SCT080 BKN120=

USA.gov is the U.S. government's official web portal to all federal, state and local government web resources and services.